Portada
METAR-TAF:

METAR-TAF

Aeroports :

Gabès, Tunísia

latitud: 33-53N, longitud: 010-06E, altitud: 4 m

Observació

L'informe es va fer fa 41 minuts, a les 01:00 UTC
Vent 8 kt del Sud/Sud-Oest
Temperatura 9°C
Humitat 61%
Pressió 1015 hPa
Visibilitat 10 km o més
Escasses núvols a una alçada de 3000 ft

METAR: DTTG 200100Z 21008KT 9999 FEW030 09/02 Q1015 NOSIG

Hora: 02:41 (01:41 UTC)

Pronòstic

L'informe es va fer fa 1 hora i 41 minuts, a les 00:00 UTC
Pronòstic vàlid del 20 a les 01 UTC al 20 a les 10 UTC
Vent 8 kt del Sud/Sud-Oest
Visibilitat 10 km o més
Escasses núvols a una alçada de 3000 ft

TAF: DTTG 200000Z 2001/2010 21008KT 9999 FEW030

Observacions i pronòstics meteorològics de més de 4000 aeroports (METAR i TAF).

Les estacions disponibles són els punts grocs i vermells al mapa.

Posi el ratolí al punt desitjat per veure el nom de l'estació.

Feu clic per veure les observacions i els pronòstics meteorològics.

Per canviar el mapa: feu clic els botons verds amb una creu de color negre per apropar; al botó verd amb un guió per allunyar la imatge; o en les fletxes verdes per a mapes adjacents.


METAR-TAF: